sensor_id;sensor_type;location;lat;lon;timestamp;temperature;humidity
59855;DHT22;45732;52.850;6.896;2023-07-24T00:02:07;17.90;99.90
59855;DHT22;45732;52.850;6.896;2023-07-24T00:04:33;17.90;99.90
59855;DHT22;45732;52.850;6.896;2023-07-24T00:07:00;17.90;99.90
59855;DHT22;45732;52.850;6.896;2023-07-24T00:09:26;17.90;99.90
59855;DHT22;45732;52.850;6.896;2023-07-24T00:11:51;17.90;99.90
59855;DHT22;45732;52.850;6.896;2023-07-24T00:14:17;17.90;99.90
59855;DHT22;45732;52.850;6.896;2023-07-24T00:16:43;17.90;99.90
59855;DHT22;45732;52.850;6.896;2023-07-24T00:19:08;17.90;99.90
59855;DHT22;45732;52.850;6.896;2023-07-24T00:21:34;17.90;99.90
59855;DHT22;45732;52.850;6.896;2023-07-24T00:24:00;17.80;99.90
59855;DHT22;45732;52.850;6.896;2023-07-24T00:26:26;17.80;99.90
59855;DHT22;45732;52.850;6.896;2023-07-24T00:28:51;17.80;99.90
59855;DHT22;45732;52.850;6.896;2023-07-24T00:31:17;17.70;99.90
59855;DHT22;45732;52.850;6.896;2023-07-24T00:33:43;17.70;99.90
59855;DHT22;45732;52.850;6.896;2023-07-24T00:36:08;17.70;99.90
59855;DHT22;45732;52.850;6.896;2023-07-24T00:38:34;17.60;99.90
59855;DHT22;45732;52.850;6.896;2023-07-24T00:41:00;17.60;99.90
59855;DHT22;45732;52.850;6.896;2023-07-24T00:43:25;17.60;99.90
59855;DHT22;45732;52.850;6.896;2023-07-24T00:45:51;17.60;99.90
59855;DHT22;45732;52.850;6.896;2023-07-24T00:48:19;17.60;99.90
59855;DHT22;45732;52.850;6.896;2023-07-24T00:50:45;17.60;99.90
59855;DHT22;45732;52.850;6.896;2023-07-24T00:53:12;17.60;99.90
59855;DHT22;45732;52.850;6.896;2023-07-24T00:55:39;17.50;99.90
59855;DHT22;45732;52.850;6.896;2023-07-24T00:58:06;17.50;99.90
59855;DHT22;45732;52.850;6.896;2023-07-24T01:00:32;17.40;99.90
59855;DHT22;45732;52.850;6.896;2023-07-24T01:02:59;17.40;99.90
59855;DHT22;45732;52.850;6.896;2023-07-24T01:05:25;17.40;99.90
59855;DHT22;45732;52.850;6.896;2023-07-24T01:07:54;17.40;99.90
59855;DHT22;45732;52.850;6.896;2023-07-24T01:10:20;17.40;99.90
59855;DHT22;45732;52.850;6.896;2023-07-24T01:15:29;17.30;99.90
59855;DHT22;45732;52.850;6.896;2023-07-24T01:18:08;17.30;99.90
59855;DHT22;45732;52.850;6.896;2023-07-24T01:20:37;17.20;99.90
59855;DHT22;45732;52.850;6.896;2023-07-24T01:23:44;17.20;99.90
59855;DHT22;45732;52.850;6.896;2023-07-24T01:26:12;17.20;99.90
59855;DHT22;45732;52.850;6.896;2023-07-24T01:28:38;17.20;99.90
59855;DHT22;45732;52.850;6.896;2023-07-24T01:31:05;17.10;99.90
59855;DHT22;45732;52.850;6.896;2023-07-24T01:33:31;17.10;99.90
59855;DHT22;45732;52.850;6.896;2023-07-24T01:36:01;17.10;99.90
59855;DHT22;45732;52.850;6.896;2023-07-24T01:38:28;17.10;99.90
59855;DHT22;45732;52.850;6.896;2023-07-24T01:40:57;17.10;99.90
59855;DHT22;45732;52.850;6.896;2023-07-24T01:43:24;17.00;99.90
59855;DHT22;45732;52.850;6.896;2023-07-24T01:45:52;17.10;99.90
59855;DHT22;45732;52.850;6.896;2023-07-24T01:48:18;17.00;99.90
59855;DHT22;45732;52.850;6.896;2023-07-24T01:50:44;17.00;99.90
59855;DHT22;45732;52.850;6.896;2023-07-24T01:53:10;17.00;99.90
59855;DHT22;45732;52.850;6.896;2023-07-24T01:55:35;17.00;99.90
59855;DHT22;45732;52.850;6.896;2023-07-24T01:58:01;17.10;99.90
59855;DHT22;45732;52.850;6.896;2023-07-24T02:00:27;17.10;99.90
59855;DHT22;45732;52.850;6.896;2023-07-24T02:02:52;17.10;99.90
59855;DHT22;45732;52.850;6.896;2023-07-24T02:05:18;17.10;99.90
59855;DHT22;45732;52.850;6.896;2023-07-24T02:07:44;17.00;99.90
59855;DHT22;45732;52.850;6.896;2023-07-24T02:10:10;17.00;99.90
59855;DHT22;45732;52.850;6.896;2023-07-24T02:12:35;17.10;99.90
59855;DHT22;45732;52.850;6.896;2023-07-24T02:15:01;17.10;99.90
59855;DHT22;45732;52.850;6.896;2023-07-24T02:17:27;17.10;99.90
59855;DHT22;45732;52.850;6.896;2023-07-24T02:19:52;17.10;99.90
59855;DHT22;45732;52.850;6.896;2023-07-24T02:22:19;17.00;99.90
59855;DHT22;45732;52.850;6.896;2023-07-24T02:24:44;17.00;99.90
59855;DHT22;45732;52.850;6.896;2023-07-24T02:27:12;17.00;99.90
59855;DHT22;45732;52.850;6.896;2023-07-24T02:29:39;17.00;99.90
59855;DHT22;45732;52.850;6.896;2023-07-24T02:32:05;17.00;99.90
59855;DHT22;45732;52.850;6.896;2023-07-24T02:34:31;17.00;99.90
59855;DHT22;45732;52.850;6.896;2023-07-24T02:36:57;17.00;99.90
59855;DHT22;45732;52.850;6.896;2023-07-24T02:39:23;17.10;99.90
59855;DHT22;45732;52.850;6.896;2023-07-24T02:41:48;17.10;99.90
59855;DHT22;45732;52.850;6.896;2023-07-24T02:44:14;17.10;99.90
59855;DHT22;45732;52.850;6.896;2023-07-24T02:46:40;17.10;99.90
59855;DHT22;45732;52.850;6.896;2023-07-24T02:49:06;17.10;99.90
59855;DHT22;45732;52.850;6.896;2023-07-24T02:51:32;17.10;99.90
59855;DHT22;45732;52.850;6.896;2023-07-24T02:53:58;17.10;99.90
59855;DHT22;45732;52.850;6.896;2023-07-24T02:56:24;17.10;99.90
59855;DHT22;45732;52.850;6.896;2023-07-24T02:58:49;17.10;99.90
59855;DHT22;45732;52.850;6.896;2023-07-24T03:01:15;17.10;99.90
59855;DHT22;45732;52.850;6.896;2023-07-24T03:03:41;17.10;99.90
59855;DHT22;45732;52.850;6.896;2023-07-24T03:06:07;17.10;99.90
59855;DHT22;45732;52.850;6.896;2023-07-24T03:08:33;17.00;99.90
59855;DHT22;45732;52.850;6.896;2023-07-24T03:10:59;17.10;99.90
59855;DHT22;45732;52.850;6.896;2023-07-24T03:13:25;17.10;99.90
59855;DHT22;45732;52.850;6.896;2023-07-24T03:15:53;17.00;99.90
59855;DHT22;45732;52.850;6.896;2023-07-24T03:18:19;17.00;99.90
59855;DHT22;45732;52.850;6.896;2023-07-24T03:20:44;16.90;99.90
59855;DHT22;45732;52.850;6.896;2023-07-24T03:23:10;16.90;99.90
59855;DHT22;45732;52.850;6.896;2023-07-24T03:25:36;17.00;99.90
59855;DHT22;45732;52.850;6.896;2023-07-24T03:28:02;16.90;99.90
59855;DHT22;45732;52.850;6.896;2023-07-24T03:30:28;16.90;99.90
59855;DHT22;45732;52.850;6.896;2023-07-24T03:32:53;16.90;99.90
59855;DHT22;45732;52.850;6.896;2023-07-24T03:35:19;16.90;99.90
59855;DHT22;45732;52.850;6.896;2023-07-24T03:37:45;16.90;99.90
59855;DHT22;45732;52.850;6.896;2023-07-24T03:40:11;16.90;99.90
59855;DHT22;45732;52.850;6.896;2023-07-24T03:42:37;16.90;99.90
59855;DHT22;45732;52.850;6.896;2023-07-24T03:45:03;16.90;99.90
59855;DHT22;45732;52.850;6.896;2023-07-24T03:47:29;16.90;99.90
59855;DHT22;45732;52.850;6.896;2023-07-24T03:49:54;16.90;99.90
59855;DHT22;45732;52.850;6.896;2023-07-24T03:52:20;16.90;99.90
59855;DHT22;45732;52.850;6.896;2023-07-24T03:54:46;16.90;99.90
59855;DHT22;45732;52.850;6.896;2023-07-24T03:57:12;16.90;99.90
59855;DHT22;45732;52.850;6.896;2023-07-24T03:59:38;16.90;99.90
59855;DHT22;45732;52.850;6.896;2023-07-24T04:02:04;16.90;99.90
59855;DHT22;45732;52.850;6.896;2023-07-24T04:04:30;16.90;99.90
59855;DHT22;45732;52.850;6.896;2023-07-24T04:06:56;16.90;99.90
59855;DHT22;45732;52.850;6.896;2023-07-24T04:09:22;16.90;99.90
59855;DHT22;45732;52.850;6.896;2023-07-24T04:11:48;16.90;99.90
59855;DHT22;45732;52.850;6.896;2023-07-24T04:14:13;16.90;99.90
59855;DHT22;45732;52.850;6.896;2023-07-24T04:16:39;16.90;99.90
59855;DHT22;45732;52.850;6.896;2023-07-24T04:19:05;16.90;99.90
59855;DHT22;45732;52.850;6.896;2023-07-24T04:21:31;16.90;99.90
59855;DHT22;45732;52.850;6.896;2023-07-24T04:23:56;16.90;99.90
59855;DHT22;45732;52.850;6.896;2023-07-24T04:26:22;17.00;99.90
59855;DHT22;45732;52.850;6.896;2023-07-24T04:28:48;17.00;99.90
59855;DHT22;45732;52.850;6.896;2023-07-24T04:31:13;17.00;99.90
59855;DHT22;45732;52.850;6.896;2023-07-24T04:33:39;17.00;99.90
59855;DHT22;45732;52.850;6.896;2023-07-24T04:36:05;17.00;99.90
59855;DHT22;45732;52.850;6.896;2023-07-24T04:38:30;17.00;99.90
59855;DHT22;45732;52.850;6.896;2023-07-24T04:40:56;16.90;99.90
59855;DHT22;45732;52.850;6.896;2023-07-24T04:43:22;16.90;99.90
59855;DHT22;45732;52.850;6.896;2023-07-24T04:45:48;17.00;99.90
59855;DHT22;45732;52.850;6.896;2023-07-24T04:48:13;17.00;99.90
59855;DHT22;45732;52.850;6.896;2023-07-24T04:50:39;17.00;99.90
59855;DHT22;45732;52.850;6.896;2023-07-24T04:53:05;17.00;99.90
59855;DHT22;45732;52.850;6.896;2023-07-24T04:55:30;17.00;99.90
59855;DHT22;45732;52.850;6.896;2023-07-24T04:57:56;17.00;99.90
59855;DHT22;45732;52.850;6.896;2023-07-24T05:00:22;17.00;99.90
59855;DHT22;45732;52.850;6.896;2023-07-24T05:02:47;17.00;99.90
59855;DHT22;45732;52.850;6.896;2023-07-24T05:05:13;17.00;99.90
59855;DHT22;45732;52.850;6.896;2023-07-24T05:07:39;17.00;99.90
59855;DHT22;45732;52.850;6.896;2023-07-24T05:10:05;17.00;99.90
59855;DHT22;45732;52.850;6.896;2023-07-24T05:12:31;17.00;99.90
59855;DHT22;45732;52.850;6.896;2023-07-24T05:14:56;17.00;99.90
59855;DHT22;45732;52.850;6.896;2023-07-24T05:17:22;17.00;99.90
59855;DHT22;45732;52.850;6.896;2023-07-24T05:19:48;16.90;99.90
59855;DHT22;45732;52.850;6.896;2023-07-24T05:22:13;17.00;99.90
59855;DHT22;45732;52.850;6.896;2023-07-24T05:24:39;17.00;99.90
59855;DHT22;45732;52.850;6.896;2023-07-24T05:27:05;16.90;99.90
59855;DHT22;45732;52.850;6.896;2023-07-24T05:29:31;17.00;99.90
59855;DHT22;45732;52.850;6.896;2023-07-24T05:31:57;17.00;99.90
59855;DHT22;45732;52.850;6.896;2023-07-24T05:34:24;17.00;99.90
59855;DHT22;45732;52.850;6.896;2023-07-24T05:36:50;16.90;99.90
59855;DHT22;45732;52.850;6.896;2023-07-24T05:39:16;16.90;99.90
59855;DHT22;45732;52.850;6.896;2023-07-24T05:41:42;16.90;99.90
59855;DHT22;45732;52.850;6.896;2023-07-24T05:44:07;17.00;99.90
59855;DHT22;45732;52.850;6.896;2023-07-24T05:46:33;16.90;99.90
59855;DHT22;45732;52.850;6.896;2023-07-24T05:48:59;16.90;99.90
59855;DHT22;45732;52.850;6.896;2023-07-24T05:51:27;17.00;99.90
59855;DHT22;45732;52.850;6.896;2023-07-24T05:53:53;17.00;99.90
59855;DHT22;45732;52.850;6.896;2023-07-24T05:56:18;17.00;99.90
59855;DHT22;45732;52.850;6.896;2023-07-24T05:58:44;17.10;99.90
59855;DHT22;45732;52.850;6.896;2023-07-24T06:01:10;17.10;99.90
59855;DHT22;45732;52.850;6.896;2023-07-24T06:03:36;17.10;99.90
59855;DHT22;45732;52.850;6.896;2023-07-24T06:06:02;17.10;99.90
59855;DHT22;45732;52.850;6.896;2023-07-24T06:08:28;17.20;99.90
59855;DHT22;45732;52.850;6.896;2023-07-24T06:10:53;17.20;99.90
59855;DHT22;45732;52.850;6.896;2023-07-24T06:13:19;17.20;99.90
59855;DHT22;45732;52.850;6.896;2023-07-24T06:15:49;17.20;99.90
59855;DHT22;45732;52.850;6.896;2023-07-24T06:18:15;17.20;99.90
59855;DHT22;45732;52.850;6.896;2023-07-24T06:20:41;17.20;99.90
59855;DHT22;45732;52.850;6.896;2023-07-24T06:23:07;17.20;99.90
59855;DHT22;45732;52.850;6.896;2023-07-24T06:25:33;17.30;99.90
59855;DHT22;45732;52.850;6.896;2023-07-24T06:27:59;17.30;99.90
59855;DHT22;45732;52.850;6.896;2023-07-24T06:30:25;17.30;99.90
59855;DHT22;45732;52.850;6.896;2023-07-24T06:32:51;17.30;99.90
59855;DHT22;45732;52.850;6.896;2023-07-24T06:35:16;17.30;99.90
59855;DHT22;45732;52.850;6.896;2023-07-24T06:37:42;17.30;99.90
59855;DHT22;45732;52.850;6.896;2023-07-24T06:40:08;17.30;99.90
59855;DHT22;45732;52.850;6.896;2023-07-24T06:42:34;17.30;99.90
59855;DHT22;45732;52.850;6.896;2023-07-24T06:45:00;17.40;99.90
59855;DHT22;45732;52.850;6.896;2023-07-24T06:47:25;17.40;99.90
59855;DHT22;45732;52.850;6.896;2023-07-24T06:49:51;17.40;99.90
59855;DHT22;45732;52.850;6.896;2023-07-24T06:52:17;17.50;99.90
59855;DHT22;45732;52.850;6.896;2023-07-24T06:54:43;17.50;99.90
59855;DHT22;45732;52.850;6.896;2023-07-24T06:57:09;17.50;99.90
59855;DHT22;45732;52.850;6.896;2023-07-24T06:59:34;17.60;99.90
59855;DHT22;45732;52.850;6.896;2023-07-24T07:02:00;17.60;99.90
59855;DHT22;45732;52.850;6.896;2023-07-24T07:04:26;17.60;99.90
59855;DHT22;45732;52.850;6.896;2023-07-24T07:06:54;17.70;99.90
59855;DHT22;45732;52.850;6.896;2023-07-24T07:09:20;17.80;99.90
59855;DHT22;45732;52.850;6.896;2023-07-24T07:11:45;17.80;99.90
59855;DHT22;45732;52.850;6.896;2023-07-24T07:14:11;17.90;99.90
59855;DHT22;45732;52.850;6.896;2023-07-24T07:16:38;17.90;99.90
59855;DHT22;45732;52.850;6.896;2023-07-24T07:19:04;17.90;99.90
59855;DHT22;45732;52.850;6.896;2023-07-24T07:21:29;17.90;99.90
59855;DHT22;45732;52.850;6.896;2023-07-24T07:23:55;18.00;99.90
59855;DHT22;45732;52.850;6.896;2023-07-24T07:26:21;18.10;99.90
59855;DHT22;45732;52.850;6.896;2023-07-24T07:28:47;18.20;99.90
59855;DHT22;45732;52.850;6.896;2023-07-24T07:31:13;18.30;99.90
59855;DHT22;45732;52.850;6.896;2023-07-24T07:33:39;18.30;99.90
59855;DHT22;45732;52.850;6.896;2023-07-24T07:36:05;18.40;99.90
59855;DHT22;45732;52.850;6.896;2023-07-24T07:38:31;18.40;99.90
59855;DHT22;45732;52.850;6.896;2023-07-24T07:40:57;18.40;99.90
59855;DHT22;45732;52.850;6.896;2023-07-24T07:43:23;18.40;99.90
59855;DHT22;45732;52.850;6.896;2023-07-24T07:45:49;18.40;99.90
59855;DHT22;45732;52.850;6.896;2023-07-24T07:48:15;18.40;99.90
59855;DHT22;45732;52.850;6.896;2023-07-24T07:50:40;18.40;99.90
59855;DHT22;45732;52.850;6.896;2023-07-24T07:53:06;18.40;99.90
59855;DHT22;45732;52.850;6.896;2023-07-24T07:55:32;18.40;99.90
59855;DHT22;45732;52.850;6.896;2023-07-24T07:57:58;18.40;99.90
59855;DHT22;45732;52.850;6.896;2023-07-24T08:00:24;18.50;99.90
59855;DHT22;45732;52.850;6.896;2023-07-24T08:02:49;18.50;99.90
59855;DHT22;45732;52.850;6.896;2023-07-24T08:05:15;18.50;99.90
59855;DHT22;45732;52.850;6.896;2023-07-24T08:07:41;18.60;99.90
59855;DHT22;45732;52.850;6.896;2023-07-24T08:10:07;18.60;99.90
59855;DHT22;45732;52.850;6.896;2023-07-24T08:12:33;18.60;99.90
59855;DHT22;45732;52.850;6.896;2023-07-24T08:14:59;18.60;99.90
59855;DHT22;45732;52.850;6.896;2023-07-24T08:17:25;18.60;99.90
59855;DHT22;45732;52.850;6.896;2023-07-24T08:19:50;18.50;99.90
59855;DHT22;45732;52.850;6.896;2023-07-24T08:22:16;18.50;99.90
59855;DHT22;45732;52.850;6.896;2023-07-24T08:24:42;18.50;99.90
59855;DHT22;45732;52.850;6.896;2023-07-24T08:27:10;18.70;99.90
59855;DHT22;45732;52.850;6.896;2023-07-24T08:29:36;18.90;99.90
59855;DHT22;45732;52.850;6.896;2023-07-24T08:32:04;19.10;99.90
59855;DHT22;45732;52.850;6.896;2023-07-24T08:34:29;19.10;99.90
59855;DHT22;45732;52.850;6.896;2023-07-24T08:36:55;19.30;99.90
59855;DHT22;45732;52.850;6.896;2023-07-24T08:39:21;19.40;99.90
59855;DHT22;45732;52.850;6.896;2023-07-24T08:41:47;19.50;99.90
59855;DHT22;45732;52.850;6.896;2023-07-24T08:44:13;19.60;99.90
59855;DHT22;45732;52.850;6.896;2023-07-24T08:46:39;19.60;99.90
59855;DHT22;45732;52.850;6.896;2023-07-24T08:49:13;19.70;99.90
59855;DHT22;45732;52.850;6.896;2023-07-24T08:51:41;19.80;99.90
59855;DHT22;45732;52.850;6.896;2023-07-24T08:54:08;19.80;99.90
59855;DHT22;45732;52.850;6.896;2023-07-24T08:56:33;19.90;99.90
59855;DHT22;45732;52.850;6.896;2023-07-24T08:59:01;20.00;99.90
59855;DHT22;45732;52.850;6.896;2023-07-24T09:01:27;19.90;99.90
59855;DHT22;45732;52.850;6.896;2023-07-24T09:03:52;19.90;99.90
59855;DHT22;45732;52.850;6.896;2023-07-24T09:06:18;19.80;99.90
59855;DHT22;45732;52.850;6.896;2023-07-24T09:08:44;19.80;99.90
59855;DHT22;45732;52.850;6.896;2023-07-24T09:11:11;19.90;99.90
59855;DHT22;45732;52.850;6.896;2023-07-24T09:13:41;20.00;99.90
59855;DHT22;45732;52.850;6.896;2023-07-24T09:16:07;20.10;99.90
59855;DHT22;45732;52.850;6.896;2023-07-24T09:18:43;20.20;99.90
59855;DHT22;45732;52.850;6.896;2023-07-24T09:21:09;20.20;99.90
59855;DHT22;45732;52.850;6.896;2023-07-24T09:23:35;20.20;99.90
59855;DHT22;45732;52.850;6.896;2023-07-24T09:26:05;20.30;99.90
59855;DHT22;45732;52.850;6.896;2023-07-24T09:28:33;20.20;99.90
59855;DHT22;45732;52.850;6.896;2023-07-24T09:30:59;20.20;99.90
59855;DHT22;45732;52.850;6.896;2023-07-24T09:36:01;20.20;99.90
59855;DHT22;45732;52.850;6.896;2023-07-24T09:38:27;20.30;99.90
59855;DHT22;45732;52.850;6.896;2023-07-24T09:40:53;20.40;99.90
59855;DHT22;45732;52.850;6.896;2023-07-24T09:43:25;20.50;99.90
59855;DHT22;45732;52.850;6.896;2023-07-24T09:45:52;20.50;99.90
59855;DHT22;45732;52.850;6.896;2023-07-24T09:48:19;20.70;99.90
59855;DHT22;45732;52.850;6.896;2023-07-24T09:50:48;20.90;99.90
59855;DHT22;45732;52.850;6.896;2023-07-24T09:56:03;21.10;99.90
59855;DHT22;45732;52.850;6.896;2023-07-24T09:58:38;21.20;99.90
59855;DHT22;45732;52.850;6.896;2023-07-24T10:01:06;21.30;99.90
59855;DHT22;45732;52.850;6.896;2023-07-24T10:03:46;21.30;99.90
59855;DHT22;45732;52.850;6.896;2023-07-24T10:06:12;21.20;99.90
59855;DHT22;45732;52.850;6.896;2023-07-24T10:08:40;20.90;99.90
59855;DHT22;45732;52.850;6.896;2023-07-24T10:11:08;20.70;99.90
59855;DHT22;45732;52.850;6.896;2023-07-24T10:13:34;20.50;99.90
59855;DHT22;45732;52.850;6.896;2023-07-24T10:16:03;20.60;99.90
59855;DHT22;45732;52.850;6.896;2023-07-24T10:18:30;20.50;99.90
59855;DHT22;45732;52.850;6.896;2023-07-24T10:21:04;20.70;99.90
59855;DHT22;45732;52.850;6.896;2023-07-24T10:23:30;20.80;99.90
59855;DHT22;45732;52.850;6.896;2023-07-24T10:26:02;21.00;99.90
59855;DHT22;45732;52.850;6.896;2023-07-24T10:28:37;21.10;99.90
59855;DHT22;45732;52.850;6.896;2023-07-24T10:31:21;21.30;99.90
59855;DHT22;45732;52.850;6.896;2023-07-24T10:33:48;21.40;99.90
59855;DHT22;45732;52.850;6.896;2023-07-24T10:36:17;21.40;99.90
59855;DHT22;45732;52.850;6.896;2023-07-24T10:38:45;21.30;99.90
59855;DHT22;45732;52.850;6.896;2023-07-24T10:41:12;21.30;99.90
59855;DHT22;45732;52.850;6.896;2023-07-24T10:43:45;21.40;99.90
59855;DHT22;45732;52.850;6.896;2023-07-24T10:46:11;21.50;99.90
59855;DHT22;45732;52.850;6.896;2023-07-24T10:48:38;21.60;99.90
59855;DHT22;45732;52.850;6.896;2023-07-24T10:51:08;21.70;99.90
59855;DHT22;45732;52.850;6.896;2023-07-24T10:53:38;21.90;99.90
59855;DHT22;45732;52.850;6.896;2023-07-24T10:56:07;22.00;99.90
59855;DHT22;45732;52.850;6.896;2023-07-24T10:58:33;22.10;99.90
59855;DHT22;45732;52.850;6.896;2023-07-24T11:01:03;22.00;99.90
59855;DHT22;45732;52.850;6.896;2023-07-24T11:03:30;22.10;99.90
59855;DHT22;45732;52.850;6.896;2023-07-24T11:05:57;22.10;99.90
59855;DHT22;45732;52.850;6.896;2023-07-24T11:08:23;22.20;99.90
59855;DHT22;45732;52.850;6.896;2023-07-24T11:10:53;22.30;99.90
59855;DHT22;45732;52.850;6.896;2023-07-24T11:13:22;22.40;99.90
59855;DHT22;45732;52.850;6.896;2023-07-24T11:15:49;22.50;99.90
59855;DHT22;45732;52.850;6.896;2023-07-24T11:18:15;22.50;99.90
59855;DHT22;45732;52.850;6.896;2023-07-24T11:20:45;22.50;99.90
59855;DHT22;45732;52.850;6.896;2023-07-24T11:23:12;22.30;99.90
59855;DHT22;45732;52.850;6.896;2023-07-24T11:25:38;22.20;99.90
59855;DHT22;45732;52.850;6.896;2023-07-24T11:28:09;22.10;99.90
59855;DHT22;45732;52.850;6.896;2023-07-24T11:30:36;22.20;99.90
59855;DHT22;45732;52.850;6.896;2023-07-24T11:33:06;22.20;99.90
59855;DHT22;45732;52.850;6.896;2023-07-24T11:35:33;22.20;99.90
59855;DHT22;45732;52.850;6.896;2023-07-24T11:38:01;22.10;99.90
59855;DHT22;45732;52.850;6.896;2023-07-24T11:40:42;22.10;99.90
59855;DHT22;45732;52.850;6.896;2023-07-24T11:43:17;22.00;99.90
59855;DHT22;45732;52.850;6.896;2023-07-24T11:45:44;22.00;99.90
59855;DHT22;45732;52.850;6.896;2023-07-24T11:48:11;22.00;99.90
59855;DHT22;45732;52.850;6.896;2023-07-24T11:50:45;21.90;99.90
59855;DHT22;45732;52.850;6.896;2023-07-24T11:53:21;21.80;99.90
59855;DHT22;45732;52.850;6.896;2023-07-24T11:55:49;21.80;99.90
59855;DHT22;45732;52.850;6.896;2023-07-24T11:58:16;21.70;99.90
59855;DHT22;45732;52.850;6.896;2023-07-24T12:00:42;21.80;99.90
59855;DHT22;45732;52.850;6.896;2023-07-24T12:03:08;21.80;99.90
59855;DHT22;45732;52.850;6.896;2023-07-24T12:05:38;21.90;99.90
59855;DHT22;45732;52.850;6.896;2023-07-24T12:08:05;22.00;99.90
59855;DHT22;45732;52.850;6.896;2023-07-24T12:10:30;22.00;99.90
59855;DHT22;45732;52.850;6.896;2023-07-24T12:12:59;22.00;99.90
59855;DHT22;45732;52.850;6.896;2023-07-24T12:15:28;22.00;99.90
59855;DHT22;45732;52.850;6.896;2023-07-24T12:17:54;21.90;99.90
59855;DHT22;45732;52.850;6.896;2023-07-24T12:20:20;21.90;99.90
59855;DHT22;45732;52.850;6.896;2023-07-24T12:22:45;21.80;99.90
59855;DHT22;45732;52.850;6.896;2023-07-24T12:25:12;21.80;99.90
59855;DHT22;45732;52.850;6.896;2023-07-24T12:27:39;21.80;99.90
59855;DHT22;45732;52.850;6.896;2023-07-24T12:30:07;21.70;99.90
59855;DHT22;45732;52.850;6.896;2023-07-24T12:32:33;21.70;99.90
59855;DHT22;45732;52.850;6.896;2023-07-24T12:34:58;21.70;99.90
59855;DHT22;45732;52.850;6.896;2023-07-24T12:37:24;21.60;99.90
59855;DHT22;45732;52.850;6.896;2023-07-24T12:39:50;21.70;99.90
59855;DHT22;45732;52.850;6.896;2023-07-24T12:42:16;21.80;99.90
59855;DHT22;45732;52.850;6.896;2023-07-24T12:44:42;21.90;99.90
59855;DHT22;45732;52.850;6.896;2023-07-24T12:47:09;22.00;99.90
59855;DHT22;45732;52.850;6.896;2023-07-24T12:49:35;22.10;99.90
59855;DHT22;45732;52.850;6.896;2023-07-24T12:52:01;22.20;99.90
59855;DHT22;45732;52.850;6.896;2023-07-24T12:54:27;22.30;99.90
59855;DHT22;45732;52.850;6.896;2023-07-24T12:56:53;22.20;99.90
59855;DHT22;45732;52.850;6.896;2023-07-24T12:59:19;22.30;99.90
59855;DHT22;45732;52.850;6.896;2023-07-24T13:01:45;22.20;99.90
59855;DHT22;45732;52.850;6.896;2023-07-24T13:04:10;22.20;99.90
59855;DHT22;45732;52.850;6.896;2023-07-24T13:06:36;22.20;99.90
59855;DHT22;45732;52.850;6.896;2023-07-24T13:09:02;22.30;99.90
59855;DHT22;45732;52.850;6.896;2023-07-24T13:11:28;22.40;99.90
59855;DHT22;45732;52.850;6.896;2023-07-24T13:13:55;22.50;99.90
59855;DHT22;45732;52.850;6.896;2023-07-24T13:16:21;22.60;99.90
59855;DHT22;45732;52.850;6.896;2023-07-24T13:18:47;22.70;99.90
59855;DHT22;45732;52.850;6.896;2023-07-24T13:21:12;22.70;99.90
59855;DHT22;45732;52.850;6.896;2023-07-24T13:23:39;22.60;99.90
59855;DHT22;45732;52.850;6.896;2023-07-24T13:26:05;22.50;99.90
59855;DHT22;45732;52.850;6.896;2023-07-24T13:28:33;22.60;99.90
59855;DHT22;45732;52.850;6.896;2023-07-24T13:30:59;22.60;99.90
59855;DHT22;45732;52.850;6.896;2023-07-24T13:33:24;22.60;99.90
59855;DHT22;45732;52.850;6.896;2023-07-24T13:35:50;22.60;99.90
59855;DHT22;45732;52.850;6.896;2023-07-24T13:38:19;22.70;99.90
59855;DHT22;45732;52.850;6.896;2023-07-24T13:40:44;22.60;99.90
59855;DHT22;45732;52.850;6.896;2023-07-24T13:43:10;22.40;99.90
59855;DHT22;45732;52.850;6.896;2023-07-24T13:45:36;22.20;99.90
59855;DHT22;45732;52.850;6.896;2023-07-24T13:48:02;22.10;99.90
59855;DHT22;45732;52.850;6.896;2023-07-24T13:50:28;21.90;99.90
59855;DHT22;45732;52.850;6.896;2023-07-24T13:52:54;21.80;99.90
59855;DHT22;45732;52.850;6.896;2023-07-24T13:55:19;21.40;99.90
59855;DHT22;45732;52.850;6.896;2023-07-24T13:57:45;21.10;99.90
59855;DHT22;45732;52.850;6.896;2023-07-24T14:00:11;20.70;99.90
59855;DHT22;45732;52.850;6.896;2023-07-24T14:02:37;20.40;99.90
59855;DHT22;45732;52.850;6.896;2023-07-24T14:05:03;20.20;99.90
59855;DHT22;45732;52.850;6.896;2023-07-24T14:07:28;20.00;99.90
59855;DHT22;45732;52.850;6.896;2023-07-24T14:09:54;19.90;99.90
59855;DHT22;45732;52.850;6.896;2023-07-24T14:12:20;19.80;99.90
59855;DHT22;45732;52.850;6.896;2023-07-24T14:14:45;19.70;99.90
59855;DHT22;45732;52.850;6.896;2023-07-24T14:17:11;19.50;99.90
59855;DHT22;45732;52.850;6.896;2023-07-24T14:19:40;19.40;99.90
59855;DHT22;45732;52.850;6.896;2023-07-24T14:22:06;19.40;99.90
59855;DHT22;45732;52.850;6.896;2023-07-24T14:24:31;19.40;99.90
59855;DHT22;45732;52.850;6.896;2023-07-24T14:26:57;19.40;99.90
59855;DHT22;45732;52.850;6.896;2023-07-24T14:29:23;19.40;99.90
59855;DHT22;45732;52.850;6.896;2023-07-24T14:31:48;19.30;99.90
59855;DHT22;45732;52.850;6.896;2023-07-24T14:34:14;19.20;99.90
59855;DHT22;45732;52.850;6.896;2023-07-24T14:36:40;19.20;99.90
59855;DHT22;45732;52.850;6.896;2023-07-24T14:39:06;19.10;99.90
59855;DHT22;45732;52.850;6.896;2023-07-24T14:41:31;19.00;99.90
59855;DHT22;45732;52.850;6.896;2023-07-24T14:43:57;19.00;99.90
59855;DHT22;45732;52.850;6.896;2023-07-24T14:46:23;18.90;99.90
59855;DHT22;45732;52.850;6.896;2023-07-24T14:48:49;18.90;99.90
59855;DHT22;45732;52.850;6.896;2023-07-24T14:51:15;18.80;99.90
59855;DHT22;45732;52.850;6.896;2023-07-24T14:53:41;18.80;99.90
59855;DHT22;45732;52.850;6.896;2023-07-24T14:56:06;18.80;99.90
59855;DHT22;45732;52.850;6.896;2023-07-24T14:58:32;18.80;99.90
59855;DHT22;45732;52.850;6.896;2023-07-24T15:00:58;18.80;99.90
59855;DHT22;45732;52.850;6.896;2023-07-24T15:03:23;18.80;99.90
59855;DHT22;45732;52.850;6.896;2023-07-24T15:05:49;18.90;99.90
59855;DHT22;45732;52.850;6.896;2023-07-24T15:08:15;18.90;99.90
59855;DHT22;45732;52.850;6.896;2023-07-24T15:10:42;18.90;99.90
59855;DHT22;45732;52.850;6.896;2023-07-24T15:13:32;18.90;99.90
59855;DHT22;45732;52.850;6.896;2023-07-24T15:15:57;19.00;99.90
59855;DHT22;45732;52.850;6.896;2023-07-24T15:18:23;19.00;99.90
59855;DHT22;45732;52.850;6.896;2023-07-24T15:20:49;19.10;99.90
59855;DHT22;45732;52.850;6.896;2023-07-24T15:23:15;19.30;99.90
59855;DHT22;45732;52.850;6.896;2023-07-24T15:25:40;19.40;99.90
59855;DHT22;45732;52.850;6.896;2023-07-24T15:28:06;19.50;99.90
59855;DHT22;45732;52.850;6.896;2023-07-24T15:30:32;19.60;99.90
59855;DHT22;45732;52.850;6.896;2023-07-24T15:32:58;19.90;99.90
59855;DHT22;45732;52.850;6.896;2023-07-24T15:35:23;19.80;99.90